Saint George, Vermont
Current Conditions -  °F | °C
As of 2:54 PM on Saturday 20 Dec 2014 (Local Time) from KBTV Reporting Station
Few Clouds Few Clouds  
Wind Chill: 26°   Ceiling: Unl
Heat Index: 26°   Visibility: 10mi
Dew Point: 15°   Wind: 3mph
Humidity: 63%   Direction: 320°NW
Pressure: 30.3"   Gusts: NA
Location:  44.4289°N, 73.0926°W
Report Text: KBTV 201954Z 32003KT 10SM FEW080 FEW140 M03/M09 A3030 RMK AO2 SLP265 T10331094
Loading
Personal Weather Stations






























Interactive Weather Map New forecast layout! Learn more

10-Day Weather Forecast

Advertisements
Track Severe Weather on mobile